createdAt,value
2016-05-20T00:00:16.832Z,1009.85
2016-05-20T00:01:16.851Z,1009.84
2016-05-20T00:02:16.868Z,1009.88
2016-05-20T00:03:16.903Z,1009.82
2016-05-20T00:04:16.920Z,1009.8
2016-05-20T00:05:16.939Z,1009.77
2016-05-20T00:06:16.957Z,1009.77
2016-05-20T00:08:17.009Z,1009.77
2016-05-20T00:09:17.028Z,1009.75
2016-05-20T00:10:17.062Z,1009.77
2016-05-20T00:11:17.080Z,1009.71
2016-05-20T00:12:17.098Z,1009.69
2016-05-20T00:13:17.132Z,1009.73
2016-05-20T00:14:17.151Z,1009.69
2016-05-20T00:15:17.169Z,1009.75
2016-05-20T00:16:17.203Z,1009.74
2016-05-20T00:17:17.222Z,1009.77
2016-05-20T00:18:17.239Z,1009.76
2016-05-20T00:19:17.274Z,1009.79
2016-05-20T00:20:17.292Z,1009.8
2016-05-20T00:21:17.310Z,1009.75
2016-05-20T00:22:17.344Z,1009.77
2016-05-20T00:23:17.363Z,1009.75
2016-05-20T00:24:17.380Z,1009.78
2016-05-20T00:25:17.399Z,1009.81
2016-05-20T00:26:17.432Z,1009.77
2016-05-20T00:27:17.451Z,1009.83
2016-05-20T00:28:17.470Z,1009.82
2016-05-20T00:29:17.504Z,1009.86
2016-05-20T00:30:17.522Z,1009.87
2016-05-20T00:31:17.540Z,1009.86
2016-05-20T00:32:17.574Z,1009.85
2016-05-20T00:33:17.593Z,1009.82
2016-05-20T00:34:17.612Z,1009.84
2016-05-20T00:35:17.645Z,1009.82
2016-05-20T00:36:17.663Z,1009.81
2016-05-20T00:37:17.681Z,1009.79
2016-05-20T00:38:17.715Z,1009.82
2016-05-20T00:40:17.752Z,1009.83
2016-05-20T00:41:17.786Z,1009.85
2016-05-20T00:42:17.803Z,1009.84
2016-05-20T00:43:17.822Z,1009.84
2016-05-20T00:44:17.842Z,1009.86
2016-05-20T00:45:17.875Z,1009.8
2016-05-20T00:46:17.893Z,1009.82
2016-05-20T00:47:17.911Z,1009.84
2016-05-20T00:48:17.945Z,1009.8
2016-05-20T00:49:17.964Z,1009.81
2016-05-20T00:50:17.982Z,1009.81
2016-05-20T00:51:18.032Z,1009.79
2016-05-20T00:52:18.035Z,1009.78
2016-05-20T00:53:18.052Z,1009.77
2016-05-20T00:54:18.399Z,1009.8
2016-05-20T00:56:18.123Z,1009.81
2016-05-20T00:57:18.141Z,1009.77
2016-05-20T00:58:18.176Z,1009.81
2016-05-20T00:59:18.194Z,1009.8
2016-05-20T01:00:18.212Z,1009.79
2016-05-20T01:01:18.246Z,1009.82
2016-05-20T01:02:18.265Z,1009.76
2016-05-20T01:03:18.283Z,1009.8
2016-05-20T01:04:18.301Z,1009.79
2016-05-20T01:05:18.335Z,1009.81
2016-05-20T01:06:18.353Z,1009.81
2016-05-20T01:07:18.371Z,1009.78
2016-05-20T01:08:18.406Z,1009.83
2016-05-20T01:09:18.501Z,1009.84
2016-05-20T01:10:18.442Z,1009.81
2016-05-20T01:12:18.494Z,1009.81
2016-05-20T01:13:18.513Z,1009.8
2016-05-20T01:14:18.546Z,1009.81
2016-05-20T01:15:18.564Z,1009.85
2016-05-20T01:16:18.583Z,1009.82
2016-05-20T01:17:18.602Z,1009.82
2016-05-20T01:18:18.636Z,1009.84
2016-05-20T01:19:18.653Z,1009.83
2016-05-20T01:20:18.688Z,1009.83
2016-05-20T01:21:18.705Z,1009.83
2016-05-20T01:22:18.724Z,1009.82
2016-05-20T01:23:18.743Z,1009.84
2016-05-20T01:24:18.807Z,1009.8
2016-05-20T01:25:18.794Z,1009.81
2016-05-20T01:26:18.813Z,1009.85
2016-05-20T01:28:18.866Z,1009.85
2016-05-20T01:29:18.884Z,1009.86
2016-05-20T01:30:18.902Z,1009.85
2016-05-20T01:31:18.936Z,1009.85
2016-05-20T01:32:18.954Z,1009.89
2016-05-20T01:33:18.973Z,1009.88
2016-05-20T01:34:18.991Z,1009.86
2016-05-20T01:35:19.025Z,1009.87
2016-05-20T01:36:19.059Z,1009.86
2016-05-20T01:37:19.062Z,1009.83
2016-05-20T01:38:19.095Z,1009.83
2016-05-20T01:39:19.114Z,1009.84
2016-05-20T01:40:19.131Z,1009.8
2016-05-20T01:41:19.167Z,1009.81
2016-05-20T01:43:19.202Z,1009.79
2016-05-20T01:44:19.237Z,1009.83
2016-05-20T01:45:19.255Z,1009.79
2016-05-20T01:46:19.273Z,1009.81
2016-05-20T01:47:19.292Z,1009.83
2016-05-20T01:48:19.325Z,1009.82
2016-05-20T01:49:19.344Z,1009.85
2016-05-20T01:50:19.377Z,1009.84
2016-05-20T01:51:19.396Z,1009.82
2016-05-20T01:52:19.414Z,1009.85
2016-05-20T01:53:19.432Z,1009.84
2016-05-20T01:54:19.685Z,1009.84
2016-05-20T01:55:19.485Z,1009.86
2016-05-20T01:56:19.503Z,1009.89
2016-05-20T01:57:19.521Z,1009.84
2016-05-20T01:58:19.555Z,1009.83
2016-05-20T01:59:19.574Z,1009.87
2016-05-20T02:00:19.593Z,1009.86
2016-05-20T02:01:19.626Z,1009.83
2016-05-20T02:02:19.644Z,1009.85
2016-05-20T02:03:19.662Z,1009.87
2016-05-20T02:04:19.696Z,1009.86
2016-05-20T02:05:19.715Z,1009.83
2016-05-20T02:06:19.733Z,1009.8
2016-05-20T02:07:19.751Z,1009.8
2016-05-20T02:08:19.785Z,1009.8
2016-05-20T02:09:19.804Z,1009.78
2016-05-20T02:10:19.823Z,1009.84
2016-05-20T02:11:19.857Z,1009.82
2016-05-20T02:12:19.875Z,1009.78
2016-05-20T02:13:19.893Z,1009.79
2016-05-20T02:15:19.944Z,1009.8
2016-05-20T02:16:19.964Z,1009.78
2016-05-20T02:17:19.997Z,1009.82
2016-05-20T02:18:20.016Z,1009.83
2016-05-20T02:19:20.034Z,1009.84
2016-05-20T02:20:20.052Z,1009.82
2016-05-20T02:21:20.070Z,1009.82
2016-05-20T02:22:20.104Z,1009.81
2016-05-20T02:23:20.123Z,1009.82
2016-05-20T02:24:20.141Z,1009.79
2016-05-20T02:25:20.175Z,1009.82
2016-05-20T02:26:20.194Z,1009.81
2016-05-20T02:27:20.211Z,1009.85
2016-05-20T02:28:20.246Z,1009.8
2016-05-20T02:29:20.263Z,1009.87
2016-05-20T02:31:20.316Z,1009.83
2016-05-20T02:32:20.334Z,1009.87
2016-05-20T02:33:20.352Z,1009.89
2016-05-20T02:34:20.370Z,1009.87
2016-05-20T02:35:20.389Z,1009.9
2016-05-20T02:36:20.423Z,1009.88
2016-05-20T02:37:20.442Z,1009.91
2016-05-20T02:38:20.460Z,1009.95
2016-05-20T02:39:20.823Z,1009.95
2016-05-20T02:40:20.512Z,1009.95
2016-05-20T02:41:20.531Z,1009.95
2016-05-20T02:42:20.565Z,1009.95
2016-05-20T02:43:20.583Z,1009.98
2016-05-20T02:44:20.664Z,1009.98
2016-05-20T02:45:20.634Z,1009.99
2016-05-20T02:47:20.672Z,1009.97
2016-05-20T02:48:20.690Z,1009.99
2016-05-20T02:49:20.724Z,1010.01
2016-05-20T02:50:20.742Z,1010.04
2016-05-20T02:51:20.761Z,1010.04
2016-05-20T02:52:20.795Z,1010.07
2016-05-20T02:53:20.813Z,1010.07
2016-05-20T02:54:20.831Z,1010.09
2016-05-20T02:55:20.850Z,1010.13
2016-05-20T02:56:20.883Z,1010.14
2016-05-20T02:57:20.902Z,1010.12
2016-05-20T02:58:20.919Z,1010.12
2016-05-20T02:59:20.938Z,1010.15
2016-05-20T03:00:20.972Z,1010.13
2016-05-20T03:01:20.991Z,1010.15
2016-05-20T03:03:21.042Z,1010.15
2016-05-20T03:04:21.061Z,1010.14
2016-05-20T03:05:21.079Z,1010.14
2016-05-20T03:06:21.113Z,1010.16
2016-05-20T03:07:21.132Z,1010.16
2016-05-20T03:08:21.150Z,1010.19
2016-05-20T03:09:21.168Z,1010.23
2016-05-20T03:10:21.202Z,1010.24
2016-05-20T03:11:21.220Z,1010.19
2016-05-20T03:12:21.239Z,1010.25
2016-05-20T03:13:21.272Z,1010.22
2016-05-20T03:14:21.291Z,1010.23
2016-05-20T03:15:21.310Z,1010.27
2016-05-20T03:16:21.328Z,1010.26
2016-05-20T03:18:21.381Z,1010.3
2016-05-20T03:19:21.398Z,1010.3
2016-05-20T03:20:21.432Z,1010.31
2016-05-20T03:21:21.450Z,1010.33
2016-05-20T03:22:21.469Z,1010.38
2016-05-20T03:23:21.486Z,1010.36
2016-05-20T03:24:21.521Z,1010.42
2016-05-20T03:25:21.540Z,1010.44
2016-05-20T03:26:21.557Z,1010.46
2016-05-20T03:27:21.591Z,1010.46
2016-05-20T03:28:21.610Z,1010.49
2016-05-20T03:29:21.628Z,1010.46
2016-05-20T03:30:21.647Z,1010.52
2016-05-20T03:31:21.680Z,1010.5
2016-05-20T03:32:21.699Z,1010.48
2016-05-20T03:33:21.717Z,1010.49
2016-05-20T03:34:21.751Z,1010.46
2016-05-20T03:35:21.769Z,1010.42
2016-05-20T03:36:21.787Z,1010.45
2016-05-20T03:37:21.806Z,1010.46
2016-05-20T03:38:21.840Z,1010.47
2016-05-20T03:39:21.859Z,1010.47
2016-05-20T03:40:21.892Z,1010.47
2016-05-20T03:41:21.910Z,1010.49
2016-05-20T03:42:21.929Z,1010.55
2016-05-20T03:43:21.948Z,1010.52
2016-05-20T03:44:21.981Z,1010.57
2016-05-20T03:45:22.000Z,1010.54
2016-05-20T03:46:22.017Z,1010.55
2016-05-20T03:47:22.036Z,1010.57
2016-05-20T03:48:22.069Z,1010.57
2016-05-20T03:50:22.106Z,1010.58
2016-05-20T03:51:22.125Z,1010.57
2016-05-20T03:52:22.159Z,1010.61
2016-05-20T03:53:22.178Z,1010.6
2016-05-20T03:54:22.195Z,1010.61
2016-05-20T03:55:22.230Z,1010.61
2016-05-20T03:56:22.248Z,1010.64
2016-05-20T03:57:22.266Z,1010.62
2016-05-20T03:58:22.300Z,1010.64
2016-05-20T03:59:22.318Z,1010.65
2016-05-20T04:00:22.336Z,1010.63
2016-05-20T04:01:22.371Z,1010.66
2016-05-20T04:02:22.389Z,1010.68
2016-05-20T04:03:22.407Z,1010.68
2016-05-20T04:04:22.426Z,1010.68
2016-05-20T04:06:22.478Z,1010.66
2016-05-20T04:07:22.512Z,1010.68
2016-05-20T04:08:22.529Z,1010.71
2016-05-20T04:09:22.549Z,1010.71
2016-05-20T04:10:22.567Z,1010.69
2016-05-20T04:11:22.585Z,1010.74
2016-05-20T04:12:22.618Z,1010.75
2016-05-20T04:13:22.637Z,1010.69
2016-05-20T04:14:22.656Z,1010.72
2016-05-20T04:15:22.690Z,1010.71
2016-05-20T04:16:22.709Z,1010.72
2016-05-20T04:17:22.726Z,1010.72
2016-05-20T04:18:22.745Z,1010.75
2016-05-20T04:19:22.779Z,1010.76
2016-05-20T04:20:22.797Z,1010.73
2016-05-20T04:22:22.849Z,1010.75
2016-05-20T04:23:22.867Z,1010.73
2016-05-20T04:24:22.886Z,1010.74
2016-05-20T04:25:22.919Z,1010.81
2016-05-20T04:26:22.938Z,1010.82
2016-05-20T04:27:22.955Z,1010.82
2016-05-20T04:28:22.990Z,1010.8
2016-05-20T04:29:23.009Z,1010.79
2016-05-20T04:30:23.027Z,1010.8
2016-05-20T04:31:23.061Z,1010.83
2016-05-20T04:32:23.079Z,1010.85
2016-05-20T04:33:23.097Z,1010.8
2016-05-20T04:34:23.132Z,1010.82
2016-05-20T04:35:23.149Z,1010.81
2016-05-20T04:36:23.168Z,1010.85
2016-05-20T04:38:23.221Z,1010.88
2016-05-20T04:39:23.239Z,1010.87
2016-05-20T04:40:23.257Z,1010.88
2016-05-20T04:41:23.291Z,1010.89
2016-05-20T04:42:23.309Z,1010.88
2016-05-20T04:43:23.327Z,1010.87
2016-05-20T04:44:23.362Z,1010.9
2016-05-20T04:45:23.379Z,1010.91
2016-05-20T04:46:23.398Z,1010.89
2016-05-20T04:47:23.431Z,1010.89
2016-05-20T04:48:23.450Z,1010.88
2016-05-20T04:49:23.468Z,1010.94
2016-05-20T04:50:23.502Z,1010.98
2016-05-20T04:51:23.521Z,1010.95
2016-05-20T04:53:23.573Z,1010.99
2016-05-20T04:54:23.592Z,1011.01
2016-05-20T04:55:23.625Z,1011.04
2016-05-20T04:56:23.643Z,1011.03
2016-05-20T04:57:23.661Z,1010.99
2016-05-20T04:58:23.680Z,1010.98
2016-05-20T04:59:23.714Z,1011.01
2016-05-20T05:00:23.732Z,1011.06
2016-05-20T05:01:23.751Z,1011.05
2016-05-20T05:02:23.784Z,1011.02
2016-05-20T05:03:23.802Z,1011.03
2016-05-20T05:04:23.822Z,1011.08
2016-05-20T05:05:23.840Z,1011.08
2016-05-20T05:06:23.874Z,1011.05
2016-05-20T05:07:23.891Z,1011.06
2016-05-20T05:08:23.910Z,1011.06
2016-05-20T05:09:24.616Z,1011.05
2016-05-20T05:10:23.962Z,1011.05
2016-05-20T05:11:23.981Z,1011.09
2016-05-20T05:12:24.014Z,1011.06
2016-05-20T05:13:24.032Z,1011.06
2016-05-20T05:14:24.051Z,1011.09
2016-05-20T05:15:24.085Z,1011.09
2016-05-20T05:16:24.104Z,1011.07
2016-05-20T05:17:24.122Z,1011.11
2016-05-20T05:18:24.156Z,1011.15
2016-05-20T05:19:24.174Z,1011.14
2016-05-20T05:20:24.193Z,1011.09
2016-05-20T05:21:24.226Z,1011.12
2016-05-20T05:22:24.244Z,1011.15
2016-05-20T05:23:24.279Z,1011.07
2016-05-20T05:25:24.314Z,1011.18
2016-05-20T05:26:24.333Z,1011.16
2016-05-20T05:27:24.367Z,1011.16
2016-05-20T05:28:24.386Z,1011.17
2016-05-20T05:29:24.405Z,1011.16
2016-05-20T05:30:24.438Z,1011.15
2016-05-20T05:31:24.456Z,1011.17
2016-05-20T05:32:24.475Z,1011.21
2016-05-20T05:33:24.509Z,1011.22
2016-05-20T05:34:24.527Z,1011.26
2016-05-20T05:35:24.546Z,1011.26
2016-05-20T05:36:24.579Z,1011.29
2016-05-20T05:37:24.597Z,1011.27
2016-05-20T05:38:24.616Z,1011.28
2016-05-20T05:39:24.649Z,1011.31
2016-05-20T05:41:24.687Z,1011.33
2016-05-20T05:42:24.720Z,1011.3
2016-05-20T05:43:24.739Z,1011.31
2016-05-20T05:44:24.772Z,1011.33
2016-05-20T05:45:24.791Z,1011.33
2016-05-20T05:46:24.809Z,1011.23
2016-05-20T05:47:24.828Z,1011.28
2016-05-20T05:48:24.861Z,1011.33
2016-05-20T05:49:24.880Z,1011.36
2016-05-20T05:50:24.914Z,1011.34
2016-05-20T05:51:24.932Z,1011.37
2016-05-20T05:52:24.950Z,1011.36
2016-05-20T05:53:24.984Z,1011.4
2016-05-20T05:54:25.003Z,1011.34
2016-05-20T05:55:25.020Z,1011.37
2016-05-20T05:57:25.071Z,1011.44
2016-05-20T05:58:25.089Z,1011.46
2016-05-20T05:59:25.183Z,1011.45
2016-05-20T06:00:25.246Z,1011.51
2016-05-20T06:01:25.325Z,1011.69
2016-05-20T06:02:25.388Z,1011.72
2016-05-20T06:03:25.441Z,1011.87
2016-05-20T06:04:25.492Z,1011.82
2016-05-20T06:05:25.526Z,1011.85
2016-05-20T06:06:25.561Z,1011.8
2016-05-20T06:07:25.611Z,1011.86
2016-05-20T06:08:25.643Z,1011.94
2016-05-20T06:09:25.682Z,1011.98
2016-05-20T06:10:25.706Z,1011.97
2016-05-20T06:11:25.746Z,1012
2016-05-20T06:13:25.801Z,1012.02
2016-05-20T06:14:25.823Z,1012.04
2016-05-20T06:15:25.860Z,1011.99
2016-05-20T06:16:25.879Z,1012.06
2016-05-20T06:17:25.915Z,1012.05
2016-05-20T06:18:25.936Z,1012.01
2016-05-20T06:19:25.972Z,1012.02
2016-05-20T06:20:26.006Z,1012.02
2016-05-20T06:21:26.026Z,1012.01
2016-05-20T06:22:26.075Z,1012.04
2016-05-20T06:23:26.096Z,1011.93
2016-05-20T06:24:26.130Z,1011.93
2016-05-20T06:25:26.148Z,1011.94
2016-05-20T06:26:26.183Z,1011.93
2016-05-20T06:28:26.236Z,1012.05
2016-05-20T06:29:26.270Z,1012.06
2016-05-20T06:30:26.303Z,1012.13
2016-05-20T06:31:26.322Z,1012.05
2016-05-20T06:32:26.356Z,1012.12
2016-05-20T06:33:26.390Z,1012.09
2016-05-20T06:34:26.408Z,1012.05
2016-05-20T06:35:26.442Z,1012.16
2016-05-20T06:36:26.476Z,1012.15
2016-05-20T06:37:26.511Z,1012.14
2016-05-20T06:38:26.528Z,1012.22
2016-05-20T06:39:26.563Z,1012.18
2016-05-20T06:40:26.597Z,1012.24
2016-05-20T06:41:26.630Z,1012.26
2016-05-20T06:42:26.663Z,1012.26
2016-05-20T06:43:26.683Z,1012.14
2016-05-20T06:44:26.716Z,1011.87
2016-05-20T06:45:26.750Z,1012.12
2016-05-20T06:46:26.784Z,1012.31
2016-05-20T06:47:26.818Z,1012.38
2016-05-20T06:48:26.852Z,1012.42
2016-05-20T06:49:26.870Z,1012.47
2016-05-20T06:50:26.904Z,1012.52
2016-05-20T06:51:26.938Z,1012.56
2016-05-20T06:52:26.973Z,1012.56
2016-05-20T06:53:27.006Z,1012.51
2016-05-20T06:54:27.040Z,1012.52
2016-05-20T06:55:27.074Z,1012.54
2016-05-20T06:56:27.093Z,1012.58
2016-05-20T06:57:27.126Z,1012.31
2016-05-20T06:58:27.160Z,1012.39
2016-05-20T07:00:27.228Z,1011.94
2016-05-20T07:01:27.262Z,1011.92
2016-05-20T07:02:27.296Z,1011.91
2016-05-20T07:03:27.330Z,1012.01
2016-05-20T07:04:27.364Z,1011.98
2016-05-20T07:05:27.397Z,1011.97
2016-05-20T07:06:27.431Z,1012
2016-05-20T07:07:27.450Z,1011.89
2016-05-20T07:08:27.484Z,1011.97
2016-05-20T07:09:27.518Z,1011.93
2016-05-20T07:10:27.552Z,1012.06
2016-05-20T07:11:27.586Z,1011.88
2016-05-20T07:12:27.620Z,1011.86
2016-05-20T07:13:27.654Z,1011.88
2016-05-20T07:14:27.688Z,1011.93
2016-05-20T07:16:27.756Z,1011.84
2016-05-20T07:17:27.774Z,1011.89
2016-05-20T07:18:27.808Z,1011.86
2016-05-20T07:19:27.827Z,1011.86
2016-05-20T07:20:27.860Z,1011.89
2016-05-20T07:21:27.893Z,1011.88
2016-05-20T07:22:27.928Z,1011.92
2016-05-20T07:23:27.962Z,1011.98
2016-05-20T07:24:27.980Z,1011.86
2016-05-20T07:25:28.014Z,1011.86
2016-05-20T07:26:28.048Z,1011.88
2016-05-20T07:27:28.082Z,1011.85
2016-05-20T07:28:28.101Z,1011.89
2016-05-20T07:29:28.134Z,1011.87
2016-05-20T07:30:28.168Z,1011.86
2016-05-20T07:32:28.221Z,1011.92
2016-05-20T07:33:28.254Z,1011.89
2016-05-20T07:34:28.273Z,1011.91
2016-05-20T07:35:28.307Z,1011.95
2016-05-20T07:36:28.341Z,1011.97
2016-05-20T07:37:28.358Z,1012
2016-05-20T07:38:28.392Z,1012.04
2016-05-20T07:39:28.427Z,1012.07
2016-05-20T07:40:28.555Z,1012.08
2016-05-20T07:41:28.479Z,1012.18
2016-05-20T07:42:28.513Z,1012.34
2016-05-20T07:43:28.531Z,1012.34
2016-05-20T07:44:28.581Z,1012.22
2016-05-20T07:45:28.583Z,1012.38
2016-05-20T07:46:28.618Z,1012.52
2016-05-20T07:48:28.669Z,1012.5
2016-05-20T07:49:28.704Z,1012.49
2016-05-20T07:50:28.738Z,1012.48
2016-05-20T07:51:28.772Z,1012.4
2016-05-20T07:52:28.806Z,1012.32
2016-05-20T07:53:28.823Z,1012.27
2016-05-20T07:54:28.857Z,1012.23
2016-05-20T07:55:28.892Z,1012.31
2016-05-20T07:56:28.926Z,1012.34
2016-05-20T07:57:28.943Z,1012.35
2016-05-20T07:58:28.978Z,1012.47
2016-05-20T07:59:33.671Z,1012.5
2016-05-20T08:00:29.046Z,1012.5
2016-05-20T08:01:29.079Z,1012.55
2016-05-20T08:03:29.132Z,1012.57
2016-05-20T08:04:29.166Z,1012.65
2016-05-20T08:05:29.200Z,1012.72
2016-05-20T08:06:29.234Z,1012.72
2016-05-20T08:07:31.314Z,1012.68
2016-05-20T08:08:29.302Z,1012.68
2016-05-20T08:09:29.336Z,1012.68
2016-05-20T08:10:30.026Z,1012.6
2016-05-20T08:11:29.388Z,1012.5
2016-05-20T08:12:29.422Z,1012.54
2016-05-20T08:13:29.456Z,1012.5
2016-05-20T08:14:29.489Z,1012.42
2016-05-20T08:15:29.524Z,1012.45
2016-05-20T08:16:29.558Z,1012.41
2016-05-20T08:17:37.782Z,1012.49
2016-05-20T08:18:29.641Z,1012.4
2016-05-20T08:19:29.660Z,1012.44
2016-05-20T08:20:29.771Z,1012.39
2016-05-20T08:21:29.727Z,1012.35
2016-05-20T08:22:32.715Z,1012.35
2016-05-20T08:23:30.201Z,1012.39
2016-05-20T08:24:29.813Z,1012.31
2016-05-20T08:25:29.863Z,1012.32
2016-05-20T08:26:29.897Z,1012.31
2016-05-20T08:27:29.915Z,1012.39
2016-05-20T08:28:29.949Z,1012.39
2016-05-20T08:29:29.983Z,1012.42
2016-05-20T08:30:31.032Z,1012.35
2016-05-20T08:31:30.051Z,1012.34
2016-05-20T08:32:30.100Z,1012.24
2016-05-20T08:33:30.120Z,1012.19
2016-05-20T08:35:30.187Z,1012.25
2016-05-20T08:36:30.220Z,1012.25
2016-05-20T08:37:30.255Z,1012.31
2016-05-20T08:38:30.289Z,1012.32
2016-05-20T08:39:30.322Z,1012.29
2016-05-20T08:40:30.356Z,1012.35
2016-05-20T08:41:30.391Z,1012.31
2016-05-20T08:42:30.425Z,1012.32
2016-05-20T08:43:30.459Z,1012.34
2016-05-20T08:44:30.492Z,1012.36
2016-05-20T08:45:30.526Z,1012.3
2016-05-20T08:46:30.560Z,1012.3
2016-05-20T08:47:30.594Z,1012.32
2016-05-20T08:48:30.628Z,1012.29
2016-05-20T08:49:30.647Z,1012.25
2016-05-20T08:51:30.730Z,1012.22
2016-05-20T08:52:30.764Z,1012.22
2016-05-20T08:53:30.798Z,1012.21
2016-05-20T08:54:31.394Z,1012.26
2016-05-20T08:55:30.849Z,1012.23
2016-05-20T08:56:30.900Z,1012.16
2016-05-20T08:57:30.934Z,1012.15
2016-05-20T08:58:30.967Z,1012.23
2016-05-20T08:59:30.986Z,1012.19
2016-05-20T09:00:31.020Z,1012.24
2016-05-20T09:01:31.054Z,1012.2
2016-05-20T09:02:31.087Z,1012.18
2016-05-20T09:03:31.121Z,1012.16
2016-05-20T09:04:31.171Z,1012.22
2016-05-20T09:05:31.190Z,1012.17
2016-05-20T09:07:31.256Z,1012.23
2016-05-20T09:08:31.307Z,1012.19
2016-05-20T09:09:31.341Z,1012.23
2016-05-20T09:10:31.359Z,1012.33
2016-05-20T09:11:31.393Z,1012.22
2016-05-20T09:12:31.427Z,1012.25
2016-05-20T09:13:31.461Z,1012.36
2016-05-20T09:14:31.495Z,1012.24
2016-05-20T09:15:31.513Z,1012.23
2016-05-20T09:16:31.547Z,1012.24
2016-05-20T09:17:31.581Z,1012.25
2016-05-20T09:18:31.616Z,1012.23
2016-05-20T09:19:31.650Z,1012.17
2016-05-20T09:20:31.683Z,1012.22
2016-05-20T09:21:31.733Z,1012.18
2016-05-20T09:23:31.800Z,1012.17
2016-05-20T09:24:31.803Z,1012.12
2016-05-20T09:25:31.837Z,1012.08
2016-05-20T09:26:31.871Z,1012.05
2016-05-20T09:27:31.904Z,1012.05
2016-05-20T09:28:31.939Z,1012.11
2016-05-20T09:29:31.973Z,1012.08
2016-05-20T09:30:32.007Z,1012.16
2016-05-20T09:31:32.041Z,1012.07
2016-05-20T09:32:32.059Z,1012.02
2016-05-20T09:33:32.093Z,1012.05
2016-05-20T09:34:32.127Z,1012.04
2016-05-20T09:35:32.161Z,1012.01
2016-05-20T09:36:32.195Z,1011.97
2016-05-20T09:38:32.278Z,1012.01
2016-05-20T09:39:32.297Z,1012.03
2016-05-20T09:40:32.345Z,1012
2016-05-20T09:41:32.364Z,1011.93
2016-05-20T09:42:32.398Z,1011.98
2016-05-20T09:43:32.433Z,1012.01
2016-05-20T09:44:32.467Z,1011.96
2016-05-20T09:45:32.484Z,1011.92
2016-05-20T09:46:32.519Z,1011.87
2016-05-20T09:47:32.552Z,1011.84
2016-05-20T09:48:32.586Z,1011.78
2016-05-20T09:49:32.620Z,1011.83
2016-05-20T09:50:32.655Z,1011.83
2016-05-20T09:51:32.688Z,1011.79
2016-05-20T09:52:32.722Z,1011.69
2016-05-20T09:53:32.756Z,1011.77
2016-05-20T09:54:32.790Z,1011.73
2016-05-20T09:55:32.840Z,1011.79
2016-05-20T09:56:32.842Z,1011.87
2016-05-20T09:57:32.877Z,1011.86
2016-05-20T09:58:32.910Z,1011.82
2016-05-20T09:59:32.943Z,1011.84
2016-05-20T10:00:32.978Z,1011.82
2016-05-20T10:01:33.012Z,1011.8
2016-05-20T10:02:33.046Z,1011.73
2016-05-20T10:03:33.080Z,1011.66
2016-05-20T10:04:33.114Z,1011.82
2016-05-20T10:05:33.148Z,1011.89
2016-05-20T10:06:33.182Z,1011.83
2016-05-20T10:07:33.201Z,1011.84
2016-05-20T10:08:33.234Z,1011.85
2016-05-20T10:10:33.739Z,1011.81
2016-05-20T10:11:33.336Z,1011.88
2016-05-20T10:12:33.370Z,1011.83
2016-05-20T10:13:33.403Z,1011.77
2016-05-20T10:14:33.422Z,1011.85
2016-05-20T10:15:33.456Z,1011.87
2016-05-20T10:16:33.489Z,1011.78
2016-05-20T10:17:33.539Z,1011.8
2016-05-20T10:18:33.558Z,1011.81
2016-05-20T10:19:33.591Z,1011.73
2016-05-20T10:20:33.625Z,1011.77
2016-05-20T10:21:33.660Z,1011.83
2016-05-20T10:22:33.693Z,1011.89
2016-05-20T10:23:33.711Z,1011.83
2016-05-20T10:24:33.746Z,1011.81
2016-05-20T10:26:33.813Z,1011.76
2016-05-20T10:27:33.847Z,1011.67
2016-05-20T10:28:33.865Z,1011.79
2016-05-20T10:29:33.899Z,1011.69
2016-05-20T10:30:33.934Z,1011.77
2016-05-20T10:31:33.968Z,1011.7
2016-05-20T10:32:34.001Z,1011.7
2016-05-20T10:33:34.035Z,1011.75
2016-05-20T10:34:34.054Z,1011.7
2016-05-20T10:35:34.104Z,1011.68
2016-05-20T10:36:34.137Z,1011.78
2016-05-20T10:37:34.156Z,1011.66
2016-05-20T10:38:34.190Z,1011.69
2016-05-20T10:39:34.208Z,1011.69
2016-05-20T10:40:34.382Z,1011.63
2016-05-20T10:42:34.309Z,1011.71
2016-05-20T10:43:34.345Z,1011.73
2016-05-20T10:44:34.392Z,1011.75
2016-05-20T10:45:34.412Z,1011.75
2016-05-20T10:46:34.446Z,1011.71
2016-05-20T10:47:34.495Z,1011.71
2016-05-20T10:48:34.498Z,1011.72
2016-05-20T10:49:34.532Z,1011.79
2016-05-20T10:50:34.566Z,1011.69
2016-05-20T10:51:34.599Z,1011.65
2016-05-20T10:52:34.681Z,1011.66
2016-05-20T10:53:34.652Z,1011.73
2016-05-20T10:54:34.702Z,1011.7
2016-05-20T10:55:34.719Z,1011.72
2016-05-20T10:56:34.832Z,1011.65
2016-05-20T10:58:34.806Z,1011.73
2016-05-20T10:59:34.841Z,1011.64
2016-05-20T11:00:34.873Z,1011.69
2016-05-20T11:01:34.907Z,1011.61
2016-05-20T11:02:34.941Z,1011.74
2016-05-20T11:03:35.023Z,1011.75
2016-05-20T11:04:35.010Z,1011.72
2016-05-20T11:05:35.028Z,1011.75
2016-05-20T11:06:35.062Z,1011.73
2016-05-20T11:07:35.096Z,1011.69
2016-05-20T11:08:35.129Z,1011.67
2016-05-20T11:09:35.164Z,1011.68
2016-05-20T11:10:35.182Z,1011.73
2016-05-20T11:11:35.216Z,1011.59
2016-05-20T11:13:35.284Z,1011.65
2016-05-20T11:14:35.317Z,1011.73
2016-05-20T11:15:35.336Z,1011.66
2016-05-20T11:16:35.417Z,1011.61
2016-05-20T11:17:35.436Z,1011.71
2016-05-20T11:18:35.438Z,1011.72
2016-05-20T11:19:35.472Z,1011.68
2016-05-20T11:20:35.569Z,1011.73
2016-05-20T11:21:35.555Z,1011.69
2016-05-20T11:22:35.558Z,1011.64
2016-05-20T11:23:35.591Z,1011.67
2016-05-20T11:24:35.625Z,1011.66
2016-05-20T11:25:35.644Z,1011.66
2016-05-20T11:26:35.756Z,1011.6
2016-05-20T11:27:35.712Z,1011.57
2016-05-20T11:28:35.746Z,1011.61
2016-05-20T11:29:35.780Z,1011.58
2016-05-20T11:30:35.799Z,1011.64
2016-05-20T11:31:35.833Z,1011.56
2016-05-20T11:32:35.866Z,1011.51
2016-05-20T11:33:35.885Z,1011.53
2016-05-20T11:34:35.918Z,1011.58
2016-05-20T11:35:35.952Z,1011.56
2016-05-20T11:36:35.987Z,1011.53
2016-05-20T11:37:36.020Z,1011.56
2016-05-20T11:38:36.038Z,1011.6
2016-05-20T11:39:36.072Z,1011.5
2016-05-20T11:40:36.106Z,1011.48
2016-05-20T11:41:36.140Z,1011.51
2016-05-20T11:42:36.174Z,1011.52
2016-05-20T11:43:36.192Z,1011.51
2016-05-20T11:45:36.261Z,1011.46
2016-05-20T11:46:36.294Z,1011.44
2016-05-20T11:47:36.312Z,1011.45
2016-05-20T11:48:36.347Z,1011.45
2016-05-20T11:49:36.381Z,1011.38
2016-05-20T11:50:36.399Z,1011.36
2016-05-20T11:51:36.434Z,1011.33
2016-05-20T11:52:36.466Z,1011.36
2016-05-20T11:53:36.500Z,1011.32
2016-05-20T11:54:36.519Z,1011.32
2016-05-20T11:55:36.553Z,1011.31
2016-05-20T11:56:36.587Z,1011.35
2016-05-20T11:57:36.621Z,1011.31
2016-05-20T11:58:36.639Z,1011.3
2016-05-20T11:59:36.674Z,1011.31
2016-05-20T12:01:36.741Z,1011.38
2016-05-20T12:02:36.775Z,1011.37
2016-05-20T12:03:36.793Z,1011.53
2016-05-20T12:04:36.874Z,1011.55
2016-05-20T12:05:36.861Z,1011.49
2016-05-20T12:06:36.879Z,1011.42
2016-05-20T12:07:36.913Z,1011.47
2016-05-20T12:08:36.947Z,1011.42
2016-05-20T12:09:36.982Z,1011.43
2016-05-20T12:10:36.999Z,1011.44
2016-05-20T12:11:37.034Z,1011.33
2016-05-20T12:12:37.068Z,1011.3
2016-05-20T12:13:37.118Z,1011.33
2016-05-20T12:14:37.120Z,1011.33
2016-05-20T12:15:37.153Z,1011.43
2016-05-20T12:17:37.222Z,1011.36
2016-05-20T12:18:37.240Z,1011.43
2016-05-20T12:19:37.273Z,1011.39
2016-05-20T12:20:37.308Z,1011.42
2016-05-20T12:21:37.341Z,1011.48
2016-05-20T12:22:37.360Z,1011.47
2016-05-20T12:23:37.394Z,1011.5
2016-05-20T12:24:37.428Z,1011.46
2016-05-20T12:25:37.447Z,1011.44
2016-05-20T12:26:37.480Z,1011.38
2016-05-20T12:27:37.514Z,1011.43
2016-05-20T12:28:37.533Z,1011.33
2016-05-20T12:29:37.566Z,1011.33
2016-05-20T12:30:37.600Z,1011.36
2016-05-20T12:31:37.635Z,1011.3
2016-05-20T12:33:37.702Z,1011.34
2016-05-20T12:34:37.721Z,1011.28
2016-05-20T12:35:37.755Z,1011.28
2016-05-20T12:36:37.773Z,1011.35
2016-05-20T12:37:37.807Z,1011.34
2016-05-20T12:38:37.840Z,1011.35
2016-05-20T12:39:37.875Z,1011.34
2016-05-20T12:40:37.893Z,1011.34
2016-05-20T12:41:37.926Z,1011.34
2016-05-20T12:42:38.696Z,1011.28
2016-05-20T12:43:37.979Z,1011.37
2016-05-20T12:44:38.013Z,1011.33
2016-05-20T12:45:38.047Z,1011.37
2016-05-20T12:46:38.081Z,1011.4
2016-05-20T12:48:38.133Z,1011.34